sensor_id;sensor_type;location;lat;lon;timestamp;P1;durP1;ratioP1;P2;durP2;ratioP2
37891;SDS011;45797;47.466;9.486;2023-03-18T00:02:59;6.22;;;2.22;;
37891;SDS011;45797;47.466;9.486;2023-03-18T00:13:05;6.22;;;1.73;;
37891;SDS011;45797;47.466;9.486;2023-03-18T00:18:11;4.50;;;2.10;;
37891;SDS011;45797;47.466;9.486;2023-03-18T00:23:11;6.25;;;1.70;;
37891;SDS011;45797;47.466;9.486;2023-03-18T00:28:12;3.58;;;1.50;;
37891;SDS011;45797;47.466;9.486;2023-03-18T00:33:19;4.40;;;1.77;;
37891;SDS011;45797;47.466;9.486;2023-03-18T00:38:27;5.35;;;1.50;;
37891;SDS011;45797;47.466;9.486;2023-03-18T00:48:38;5.22;;;1.70;;
37891;SDS011;45797;47.466;9.486;2023-03-18T00:53:39;5.18;;;2.03;;
37891;SDS011;45797;47.466;9.486;2023-03-18T00:58:41;9.35;;;2.97;;
37891;SDS011;45797;47.466;9.486;2023-03-18T01:03:43;6.28;;;2.92;;
37891;SDS011;45797;47.466;9.486;2023-03-18T01:08:43;4.28;;;1.88;;
37891;SDS011;45797;47.466;9.486;2023-03-18T01:13:45;3.90;;;2.00;;
37891;SDS011;45797;47.466;9.486;2023-03-18T01:23:50;4.90;;;1.98;;
37891;SDS011;45797;47.466;9.486;2023-03-18T01:28:51;4.10;;;1.67;;
37891;SDS011;45797;47.466;9.486;2023-03-18T01:39:06;5.50;;;1.70;;
37891;SDS011;45797;47.466;9.486;2023-03-18T01:49:30;3.22;;;1.60;;
37891;SDS011;45797;47.466;9.486;2023-03-18T01:54:40;4.45;;;2.22;;
37891;SDS011;45797;47.466;9.486;2023-03-18T02:04:53;7.72;;;2.13;;
37891;SDS011;45797;47.466;9.486;2023-03-18T02:10:01;4.97;;;2.40;;
37891;SDS011;45797;47.466;9.486;2023-03-18T02:15:06;4.15;;;1.83;;
37891;SDS011;45797;47.466;9.486;2023-03-18T02:31:10;9.45;;;2.58;;
37891;SDS011;45797;47.466;9.486;2023-03-18T02:36:19;4.75;;;2.20;;
37891;SDS011;45797;47.466;9.486;2023-03-18T02:46:58;6.43;;;3.00;;
37891;SDS011;45797;47.466;9.486;2023-03-18T02:52:18;10.30;;;3.60;;
37891;SDS011;45797;47.466;9.486;2023-03-18T02:57:18;7.07;;;3.80;;
37891;SDS011;45797;47.466;9.486;2023-03-18T03:02:21;7.47;;;3.42;;
37891;SDS011;45797;47.466;9.486;2023-03-18T03:07:25;7.38;;;3.35;;
37891;SDS011;45797;47.466;9.486;2023-03-18T03:12:37;8.02;;;3.58;;
37891;SDS011;45797;47.466;9.486;2023-03-18T03:17:39;6.80;;;2.65;;
37891;SDS011;45797;47.466;9.486;2023-03-18T03:22:48;5.93;;;2.15;;
37891;SDS011;45797;47.466;9.486;2023-03-18T03:27:51;4.28;;;2.10;;
37891;SDS011;45797;47.466;9.486;2023-03-18T03:32:58;4.55;;;2.17;;
37891;SDS011;45797;47.466;9.486;2023-03-18T03:38:00;5.78;;;2.42;;
37891;SDS011;45797;47.466;9.486;2023-03-18T03:43:00;5.10;;;2.28;;
37891;SDS011;45797;47.466;9.486;2023-03-18T03:48:02;4.95;;;2.17;;
37891;SDS011;45797;47.466;9.486;2023-03-18T03:53:03;4.25;;;1.92;;
37891;SDS011;45797;47.466;9.486;2023-03-18T03:58:05;4.20;;;1.90;;
37891;SDS011;45797;47.466;9.486;2023-03-18T04:03:08;4.50;;;2.40;;
37891;SDS011;45797;47.466;9.486;2023-03-18T04:08:09;6.43;;;1.80;;
37891;SDS011;45797;47.466;9.486;2023-03-18T04:18:17;3.40;;;1.70;;
37891;SDS011;45797;47.466;9.486;2023-03-18T04:23:18;5.80;;;1.38;;
37891;SDS011;45797;47.466;9.486;2023-03-18T04:28:25;3.05;;;1.38;;
37891;SDS011;45797;47.466;9.486;2023-03-18T04:33:27;4.05;;;1.73;;
37891;SDS011;45797;47.466;9.486;2023-03-18T04:38:27;5.30;;;2.10;;
37891;SDS011;45797;47.466;9.486;2023-03-18T04:43:28;6.47;;;2.70;;
37891;SDS011;45797;47.466;9.486;2023-03-18T04:48:30;5.65;;;1.80;;
37891;SDS011;45797;47.466;9.486;2023-03-18T04:53:33;4.28;;;2.00;;
37891;SDS011;45797;47.466;9.486;2023-03-18T04:58:37;4.38;;;2.05;;
37891;SDS011;45797;47.466;9.486;2023-03-18T05:03:50;2.67;;;1.23;;
37891;SDS011;45797;47.466;9.486;2023-03-18T05:08:53;2.92;;;1.30;;
37891;SDS011;45797;47.466;9.486;2023-03-18T05:14:02;2.88;;;1.30;;
37891;SDS011;45797;47.466;9.486;2023-03-18T05:19:21;7.50;;;1.88;;
37891;SDS011;45797;47.466;9.486;2023-03-18T05:24:57;3.50;;;1.60;;
37891;SDS011;45797;47.466;9.486;2023-03-18T05:35:13;5.93;;;2.00;;
37891;SDS011;45797;47.466;9.486;2023-03-18T05:40:24;6.32;;;2.75;;
37891;SDS011;45797;47.466;9.486;2023-03-18T05:45:40;5.45;;;2.53;;
37891;SDS011;45797;47.466;9.486;2023-03-18T06:01:03;8.13;;;2.50;;
37891;SDS011;45797;47.466;9.486;2023-03-18T06:06:15;6.22;;;2.67;;
37891;SDS011;45797;47.466;9.486;2023-03-18T06:11:18;5.32;;;1.70;;
37891;SDS011;45797;47.466;9.486;2023-03-18T06:16:29;5.07;;;1.60;;
37891;SDS011;45797;47.466;9.486;2023-03-18T06:26:36;5.70;;;2.60;;
37891;SDS011;45797;47.466;9.486;2023-03-18T06:31:38;6.63;;;3.72;;
37891;SDS011;45797;47.466;9.486;2023-03-18T06:36:42;9.85;;;5.00;;
37891;SDS011;45797;47.466;9.486;2023-03-18T06:41:48;10.82;;;4.93;;
37891;SDS011;45797;47.466;9.486;2023-03-18T06:47:01;9.70;;;4.82;;
37891;SDS011;45797;47.466;9.486;2023-03-18T06:52:10;12.57;;;5.22;;
37891;SDS011;45797;47.466;9.486;2023-03-18T06:57:14;11.98;;;4.60;;
37891;SDS011;45797;47.466;9.486;2023-03-18T07:02:16;10.48;;;4.80;;
37891;SDS011;45797;47.466;9.486;2023-03-18T07:07:19;7.28;;;3.90;;
37891;SDS011;45797;47.466;9.486;2023-03-18T07:12:22;10.00;;;4.80;;
37891;SDS011;45797;47.466;9.486;2023-03-18T07:22:30;8.82;;;4.55;;
37891;SDS011;45797;47.466;9.486;2023-03-18T07:32:36;7.43;;;4.28;;
37891;SDS011;45797;47.466;9.486;2023-03-18T07:37:37;8.30;;;3.90;;
37891;SDS011;45797;47.466;9.486;2023-03-18T07:42:40;8.43;;;3.88;;
37891;SDS011;45797;47.466;9.486;2023-03-18T07:47:42;7.50;;;3.58;;
37891;SDS011;45797;47.466;9.486;2023-03-18T07:52:42;9.95;;;3.97;;
37891;SDS011;45797;47.466;9.486;2023-03-18T08:02:50;6.68;;;3.90;;
37891;SDS011;45797;47.466;9.486;2023-03-18T08:12:56;9.02;;;3.80;;
37891;SDS011;45797;47.466;9.486;2023-03-18T08:17:56;8.65;;;4.00;;
37891;SDS011;45797;47.466;9.486;2023-03-18T08:22:57;8.10;;;4.45;;
37891;SDS011;45797;47.466;9.486;2023-03-18T08:27:59;8.85;;;4.40;;
37891;SDS011;45797;47.466;9.486;2023-03-18T08:33:00;10.48;;;4.60;;
37891;SDS011;45797;47.466;9.486;2023-03-18T08:48:21;9.20;;;4.45;;
37891;SDS011;45797;47.466;9.486;2023-03-18T08:53:22;9.50;;;4.43;;
37891;SDS011;45797;47.466;9.486;2023-03-18T08:58:38;8.27;;;4.47;;
37891;SDS011;45797;47.466;9.486;2023-03-18T09:03:39;12.13;;;5.55;;
37891;SDS011;45797;47.466;9.486;2023-03-18T09:08:40;11.38;;;4.78;;
37891;SDS011;45797;47.466;9.486;2023-03-18T09:13:41;9.55;;;4.65;;
37891;SDS011;45797;47.466;9.486;2023-03-18T09:23:51;9.80;;;5.25;;
37891;SDS011;45797;47.466;9.486;2023-03-18T09:28:51;10.90;;;5.22;;
37891;SDS011;45797;47.466;9.486;2023-03-18T09:33:52;10.75;;;5.95;;
37891;SDS011;45797;47.466;9.486;2023-03-18T09:38:52;10.57;;;5.40;;
37891;SDS011;45797;47.466;9.486;2023-03-18T10:00:26;9.82;;;5.40;;
37891;SDS011;45797;47.466;9.486;2023-03-18T10:10:57;13.27;;;5.63;;
37891;SDS011;45797;47.466;9.486;2023-03-18T10:16:04;10.32;;;5.70;;
37891;SDS011;45797;47.466;9.486;2023-03-18T10:26:39;10.73;;;5.63;;
37891;SDS011;45797;47.466;9.486;2023-03-18T10:32:06;6.32;;;3.30;;
37891;SDS011;45797;47.466;9.486;2023-03-18T10:43:03;11.68;;;4.28;;
37891;SDS011;45797;47.466;9.486;2023-03-18T10:48:24;8.35;;;3.42;;
37891;SDS011;45797;47.466;9.486;2023-03-18T10:59:24;8.50;;;3.08;;
37891;SDS011;45797;47.466;9.486;2023-03-18T11:04:28;6.35;;;2.90;;
37891;SDS011;45797;47.466;9.486;2023-03-18T11:09:36;6.53;;;3.50;;
37891;SDS011;45797;47.466;9.486;2023-03-18T11:14:45;7.97;;;3.40;;
37891;SDS011;45797;47.466;9.486;2023-03-18T11:25:24;7.68;;;3.30;;
37891;SDS011;45797;47.466;9.486;2023-03-18T11:36:04;7.40;;;3.22;;
37891;SDS011;45797;47.466;9.486;2023-03-18T11:41:21;6.03;;;2.47;;
37891;SDS011;45797;47.466;9.486;2023-03-18T11:46:23;5.15;;;2.50;;
37891;SDS011;45797;47.466;9.486;2023-03-18T12:24:37;6.38;;;2.13;;
37891;SDS011;45797;47.466;9.486;2023-03-18T12:35:26;6.80;;;2.22;;
37891;SDS011;45797;47.466;9.486;2023-03-18T12:40:36;4.65;;;2.08;;
37891;SDS011;45797;47.466;9.486;2023-03-18T12:51:39;6.97;;;2.65;;
37891;SDS011;45797;47.466;9.486;2023-03-18T12:56:52;5.65;;;2.10;;
37891;SDS011;45797;47.466;9.486;2023-03-18T13:02:09;7.72;;;2.53;;
37891;SDS011;45797;47.466;9.486;2023-03-18T13:07:30;5.55;;;2.30;;
37891;SDS011;45797;47.466;9.486;2023-03-18T13:12:41;7.03;;;2.53;;
37891;SDS011;45797;47.466;9.486;2023-03-18T13:17:45;6.97;;;2.47;;
37891;SDS011;45797;47.466;9.486;2023-03-18T13:45:13;8.77;;;2.72;;
37891;SDS011;45797;47.466;9.486;2023-03-18T13:50:35;8.88;;;3.03;;
37891;SDS011;45797;47.466;9.486;2023-03-18T13:55:51;6.50;;;2.70;;
37891;SDS011;45797;47.466;9.486;2023-03-18T14:17:28;6.07;;;2.55;;
37891;SDS011;45797;47.466;9.486;2023-03-18T14:22:36;7.45;;;2.78;;
37891;SDS011;45797;47.466;9.486;2023-03-18T14:27:49;7.32;;;2.80;;
37891;SDS011;45797;47.466;9.486;2023-03-18T14:32:57;5.53;;;2.80;;
37891;SDS011;45797;47.466;9.486;2023-03-18T14:48:40;11.55;;;3.25;;
37891;SDS011;45797;47.466;9.486;2023-03-18T14:53:43;6.35;;;3.15;;
37891;SDS011;45797;47.466;9.486;2023-03-18T14:59:11;7.53;;;2.90;;
37891;SDS011;45797;47.466;9.486;2023-03-18T15:04:26;8.15;;;3.08;;
37891;SDS011;45797;47.466;9.486;2023-03-18T15:14:43;9.13;;;3.30;;
37891;SDS011;45797;47.466;9.486;2023-03-18T15:19:56;7.88;;;2.83;;
37891;SDS011;45797;47.466;9.486;2023-03-18T15:25:00;7.18;;;3.17;;
37891;SDS011;45797;47.466;9.486;2023-03-18T15:30:04;7.55;;;3.30;;
37891;SDS011;45797;47.466;9.486;2023-03-18T15:35:22;8.35;;;3.00;;
37891;SDS011;45797;47.466;9.486;2023-03-18T15:40:27;10.15;;;3.95;;
37891;SDS011;45797;47.466;9.486;2023-03-18T15:45:46;9.68;;;3.20;;
37891;SDS011;45797;47.466;9.486;2023-03-18T15:50:59;11.75;;;5.13;;
37891;SDS011;45797;47.466;9.486;2023-03-18T16:01:31;8.93;;;3.75;;
37891;SDS011;45797;47.466;9.486;2023-03-18T16:06:43;8.07;;;3.47;;
37891;SDS011;45797;47.466;9.486;2023-03-18T16:11:59;10.63;;;3.63;;
37891;SDS011;45797;47.466;9.486;2023-03-18T16:17:05;9.43;;;4.18;;
37891;SDS011;45797;47.466;9.486;2023-03-18T16:27:29;4.97;;;2.67;;
37891;SDS011;45797;47.466;9.486;2023-03-18T16:32:37;5.38;;;2.67;;
37891;SDS011;45797;47.466;9.486;2023-03-18T16:37:37;7.93;;;2.42;;
37891;SDS011;45797;47.466;9.486;2023-03-18T16:53:13;6.45;;;2.25;;
37891;SDS011;45797;47.466;9.486;2023-03-18T16:58:19;5.40;;;2.40;;
37891;SDS011;45797;47.466;9.486;2023-03-18T17:08:52;5.80;;;2.50;;
37891;SDS011;45797;47.466;9.486;2023-03-18T17:19:07;5.22;;;2.33;;
37891;SDS011;45797;47.466;9.486;2023-03-18T17:24:12;6.28;;;2.47;;
37891;SDS011;45797;47.466;9.486;2023-03-18T17:29:23;6.95;;;2.28;;
37891;SDS011;45797;47.466;9.486;2023-03-18T17:34:25;10.95;;;4.70;;
37891;SDS011;45797;47.466;9.486;2023-03-18T17:39:27;9.77;;;3.97;;
37891;SDS011;45797;47.466;9.486;2023-03-18T17:44:27;8.07;;;3.40;;
37891;SDS011;45797;47.466;9.486;2023-03-18T17:49:28;7.53;;;2.78;;
37891;SDS011;45797;47.466;9.486;2023-03-18T17:54:30;7.05;;;3.38;;
37891;SDS011;45797;47.466;9.486;2023-03-18T17:59:31;31.50;;;10.52;;
37891;SDS011;45797;47.466;9.486;2023-03-18T18:04:43;18.83;;;5.22;;
37891;SDS011;45797;47.466;9.486;2023-03-18T18:14:49;6.63;;;2.70;;
37891;SDS011;45797;47.466;9.486;2023-03-18T18:19:52;6.40;;;2.90;;
37891;SDS011;45797;47.466;9.486;2023-03-18T18:24:54;6.43;;;2.47;;
37891;SDS011;45797;47.466;9.486;2023-03-18T18:29:56;5.30;;;2.53;;
37891;SDS011;45797;47.466;9.486;2023-03-18T18:34:57;9.15;;;2.80;;
37891;SDS011;45797;47.466;9.486;2023-03-18T18:39:59;6.50;;;2.78;;
37891;SDS011;45797;47.466;9.486;2023-03-18T18:44:59;6.72;;;2.72;;
37891;SDS011;45797;47.466;9.486;2023-03-18T18:50:01;6.53;;;3.03;;
37891;SDS011;45797;47.466;9.486;2023-03-18T18:55:03;9.02;;;3.35;;
37891;SDS011;45797;47.466;9.486;2023-03-18T19:00:04;8.55;;;2.85;;
37891;SDS011;45797;47.466;9.486;2023-03-18T19:05:16;10.38;;;3.20;;
37891;SDS011;45797;47.466;9.486;2023-03-18T19:15:21;9.07;;;3.55;;
37891;SDS011;45797;47.466;9.486;2023-03-18T19:20:26;7.38;;;3.10;;
37891;SDS011;45797;47.466;9.486;2023-03-18T19:25:29;10.25;;;3.55;;
37891;SDS011;45797;47.466;9.486;2023-03-18T19:30:29;11.10;;;3.25;;
37891;SDS011;45797;47.466;9.486;2023-03-18T19:35:31;8.95;;;3.03;;
37891;SDS011;45797;47.466;9.486;2023-03-18T19:40:34;10.18;;;3.13;;
37891;SDS011;45797;47.466;9.486;2023-03-18T19:45:34;8.02;;;2.90;;
37891;SDS011;45797;47.466;9.486;2023-03-18T19:50:36;7.97;;;2.85;;
37891;SDS011;45797;47.466;9.486;2023-03-18T19:55:39;6.60;;;2.80;;
37891;SDS011;45797;47.466;9.486;2023-03-18T20:00:40;12.13;;;3.30;;
37891;SDS011;45797;47.466;9.486;2023-03-18T20:05:41;7.70;;;3.05;;
37891;SDS011;45797;47.466;9.486;2023-03-18T20:10:57;6.47;;;3.08;;
37891;SDS011;45797;47.466;9.486;2023-03-18T20:15:58;7.28;;;2.80;;
37891;SDS011;45797;47.466;9.486;2023-03-18T20:20:58;8.07;;;3.17;;
37891;SDS011;45797;47.466;9.486;2023-03-18T20:26:01;6.10;;;2.67;;
37891;SDS011;45797;47.466;9.486;2023-03-18T20:31:02;7.60;;;2.97;;
37891;SDS011;45797;47.466;9.486;2023-03-18T20:36:04;6.32;;;2.75;;
37891;SDS011;45797;47.466;9.486;2023-03-18T20:41:05;5.43;;;2.55;;
37891;SDS011;45797;47.466;9.486;2023-03-18T20:56:28;5.90;;;2.97;;
37891;SDS011;45797;47.466;9.486;2023-03-18T21:01:33;7.75;;;2.67;;
37891;SDS011;45797;47.466;9.486;2023-03-18T21:11:37;5.95;;;2.53;;
37891;SDS011;45797;47.466;9.486;2023-03-18T21:16:37;6.30;;;3.00;;
37891;SDS011;45797;47.466;9.486;2023-03-18T21:21:39;9.43;;;2.85;;
37891;SDS011;45797;47.466;9.486;2023-03-18T21:26:41;7.97;;;3.03;;
37891;SDS011;45797;47.466;9.486;2023-03-18T21:31:42;6.63;;;2.75;;
37891;SDS011;45797;47.466;9.486;2023-03-18T21:36:46;6.43;;;2.80;;
37891;SDS011;45797;47.466;9.486;2023-03-18T21:41:46;6.72;;;2.50;;
37891;SDS011;45797;47.466;9.486;2023-03-18T21:46:49;6.32;;;2.67;;
37891;SDS011;45797;47.466;9.486;2023-03-18T21:57:00;7.72;;;2.70;;
37891;SDS011;45797;47.466;9.486;2023-03-18T22:07:38;8.13;;;2.95;;
37891;SDS011;45797;47.466;9.486;2023-03-18T22:12:39;7.18;;;2.75;;
37891;SDS011;45797;47.466;9.486;2023-03-18T22:17:39;4.90;;;2.28;;
37891;SDS011;45797;47.466;9.486;2023-03-18T22:22:42;6.60;;;2.50;;
37891;SDS011;45797;47.466;9.486;2023-03-18T22:27:44;7.28;;;2.70;;
37891;SDS011;45797;47.466;9.486;2023-03-18T22:32:45;6.43;;;2.53;;
37891;SDS011;45797;47.466;9.486;2023-03-18T22:37:47;5.95;;;2.72;;
37891;SDS011;45797;47.466;9.486;2023-03-18T22:47:55;6.40;;;2.00;;
37891;SDS011;45797;47.466;9.486;2023-03-18T22:53:01;5.72;;;2.35;;
37891;SDS011;45797;47.466;9.486;2023-03-18T22:58:04;4.70;;;1.95;;
37891;SDS011;45797;47.466;9.486;2023-03-18T23:03:21;4.72;;;2.47;;
37891;SDS011;45797;47.466;9.486;2023-03-18T23:13:32;8.80;;;4.05;;
37891;SDS011;45797;47.466;9.486;2023-03-18T23:23:41;13.40;;;5.40;;
37891;SDS011;45797;47.466;9.486;2023-03-18T23:28:52;11.05;;;5.15;;
37891;SDS011;45797;47.466;9.486;2023-03-18T23:33:52;13.52;;;4.75;;
37891;SDS011;45797;47.466;9.486;2023-03-18T23:38:54;11.63;;;4.25;;
37891;SDS011;45797;47.466;9.486;2023-03-18T23:44:02;10.65;;;4.60;;
37891;SDS011;45797;47.466;9.486;2023-03-18T23:49:03;9.35;;;4.30;;
37891;SDS011;45797;47.466;9.486;2023-03-18T23:54:05;10.40;;;4.18;;
